Time;durP1;ratioP1;P1;durP2;ratioP2;P2;SDS_P1;SDS_P2;PMS_P1;PMS_P2;Temp;Humidity;BMP_temperature;BMP_pressure;BME280_temperature;BME280_humidity;BME280_pressure;Samples;Min_cycle;Max_cycle;Signal;HPM_P1;HPM_P2
2022/03/28 00:01:56;;;;;;;7.10;6.40;;;;;;;;;;6101816;29;20314;-74
2022/03/28 00:05:17;;;;;;;6.53;5.97;;;;;;;;;;6116445;29;20216;-74
2022/03/28 00:08:38;;;;;;;7.20;6.50;;;;;;;;;;6112604;29;20255;-75
2022/03/28 00:11:58;;;;;;;7.17;6.57;;;;;;;;;;6115832;29;20232;-74
2022/03/28 00:15:21;;;;;;;5.73;4.87;;;;;;;;;;6111724;29;20232;-74
2022/03/28 00:18:42;;;;;;;5.43;5.03;;;;;;;;;;6112259;29;20227;-74
2022/03/28 00:22:02;;;;;;;6.17;4.97;;;;;;;;;;6114911;29;20322;-73
2022/03/28 00:25:24;;;;;;;5.87;5.27;;;;;;;;;;6113932;29;20673;-74
2022/03/28 00:28:45;;;;;;;6.00;5.50;;;;;;;;;;6114589;29;20261;-75
2022/03/28 00:32:08;;;;;;;6.63;6.03;;;;;;;;;;6113865;29;20227;-76
2022/03/28 00:35:29;;;;;;;5.80;5.40;;;;;;;;;;6113832;29;20232;-75
2022/03/28 00:38:51;;;;;;;5.70;5.20;;;;;;;;;;6103227;29;20232;-75
2022/03/28 00:42:12;;;;;;;4.90;4.50;;;;;;;;;;6110812;29;20260;-75
2022/03/28 00:45:34;;;;;;;6.27;5.67;;;;;;;;;;6111377;29;20260;-75
2022/03/28 00:48:56;;;;;;;4.80;4.40;;;;;;;;;;6114931;29;20227;-74
2022/03/28 00:52:17;;;;;;;5.97;5.27;;;;;;;;;;6115125;29;20232;-76
2022/03/28 00:55:38;;;;;;;4.83;4.53;;;;;;;;;;6111974;29;20224;-76
2022/03/28 00:58:59;;;;;;;5.33;4.93;;;;;;;;;;6113688;29;20826;-75
2022/03/28 01:02:20;;;;;;;6.47;5.83;;;;;;;;;;6105067;29;20399;-74
2022/03/28 01:05:42;;;;;;;6.57;6.03;;;;;;;;;;6111501;29;20236;-74
2022/03/28 01:09:04;;;;;;;7.77;6.73;;;;;;;;;;6086401;29;20224;-76
2022/03/28 01:12:26;;;;;;;7.73;7.03;;;;;;;;;;6117347;29;20641;-75
2022/03/28 01:15:48;;;;;;;8.93;7.93;;;;;;;;;;6107101;29;20694;-75
2022/03/28 01:19:08;;;;;;;9.60;8.60;;;;;;;;;;6108785;29;20310;-76
2022/03/28 01:22:30;;;;;;;10.47;9.53;;;;;;;;;;6115488;29;20219;-75
2022/03/28 01:25:52;;;;;;;10.80;9.70;;;;;;;;;;6113505;29;20235;-75
2022/03/28 01:29:14;;;;;;;9.93;8.77;;;;;;;;;;6110952;29;20599;-74
2022/03/28 01:32:35;;;;;;;10.67;9.13;;;;;;;;;;6112445;29;20236;-76
2022/03/28 01:35:56;;;;;;;10.53;9.53;;;;;;;;;;6096630;29;20251;-76
2022/03/28 01:39:19;;;;;;;10.87;9.73;;;;;;;;;;6112688;29;20240;-75
2022/03/28 01:42:39;;;;;;;10.77;9.43;;;;;;;;;;6114161;29;20221;-75
2022/03/28 01:46:00;;;;;;;13.60;12.10;;;;;;;;;;6114306;29;20228;-74
2022/03/28 01:49:21;;;;;;;12.40;11.10;;;;;;;;;;6110683;29;22117;-76
2022/03/28 01:52:42;;;;;;;11.80;10.60;;;;;;;;;;6112298;29;20233;-74
2022/03/28 01:56:05;;;;;;;13.00;11.63;;;;;;;;;;6109991;29;20245;-77
2022/03/28 01:59:25;;;;;;;15.63;12.67;;;;;;;;;;6102735;29;20239;-76
2022/03/28 02:02:47;;;;;;;16.70;14.90;;;;;;;;;;6112452;29;20239;-74
2022/03/28 02:06:08;;;;;;;16.87;15.17;;;;;;;;;;6111257;29;20232;-75
2022/03/28 02:09:29;;;;;;;19.97;17.97;;;;;;;;;;6110223;29;20323;-75
2022/03/28 02:12:52;;;;;;;16.27;14.57;;;;;;;;;;6115932;29;20515;-75
2022/03/28 02:16:13;;;;;;;15.00;13.43;;;;;;;;;;6112537;29;20236;-74
2022/03/28 02:19:34;;;;;;;14.70;13.20;;;;;;;;;;6085696;29;20235;-75
2022/03/28 02:22:55;;;;;;;16.67;15.17;;;;;;;;;;6115383;29;20322;-75
2022/03/28 02:26:16;;;;;;;15.57;14.20;;;;;;;;;;6098860;29;20228;-75
2022/03/28 02:29:38;;;;;;;16.80;15.17;;;;;;;;;;6113460;29;20235;-75
2022/03/28 02:32:59;;;;;;;16.63;14.73;;;;;;;;;;6111760;29;20239;-76
2022/03/28 02:36:20;;;;;;;13.90;12.57;;;;;;;;;;6111756;29;20228;-74
2022/03/28 02:39:41;;;;;;;13.43;12.07;;;;;;;;;;6112850;29;20240;-74
2022/03/28 02:43:02;;;;;;;11.40;10.37;;;;;;;;;;6110965;29;20228;-75
2022/03/28 02:46:25;;;;;;;8.70;8.00;;;;;;;;;;6111737;29;20244;-74
2022/03/28 02:49:45;;;;;;;9.10;8.30;;;;;;;;;;6112059;29;20232;-75
2022/03/28 02:53:06;;;;;;;10.47;9.47;;;;;;;;;;6108707;29;20243;-76
2022/03/28 02:56:27;;;;;;;8.50;7.80;;;;;;;;;;6111862;29;20239;-74
2022/03/28 02:59:48;;;;;;;7.80;7.00;;;;;;;;;;6105199;29;20236;-75
2022/03/28 03:03:10;;;;;;;8.10;7.37;;;;;;;;;;6113182;29;20223;-75
2022/03/28 03:06:31;;;;;;;8.93;7.40;;;;;;;;;;6111749;29;20236;-75
2022/03/28 03:09:52;;;;;;;8.03;7.27;;;;;;;;;;6112914;29;20233;-76
2022/03/28 03:13:13;;;;;;;16.70;14.93;;;;;;;;;;6113653;29;20240;-75
2022/03/28 03:16:34;;;;;;;11.00;10.00;;;;;;;;;;6112737;29;20246;-75
2022/03/28 03:19:56;;;;;;;11.93;10.70;;;;;;;;;;6108900;29;20225;-74
2022/03/28 03:23:17;;;;;;;11.00;9.90;;;;;;;;;;6109618;29;20580;-75
2022/03/28 03:26:38;;;;;;;13.77;12.40;;;;;;;;;;6112235;29;20232;-74
2022/03/28 03:29:59;;;;;;;12.70;11.37;;;;;;;;;;6120142;29;20319;-74
2022/03/28 03:33:20;;;;;;;13.97;11.53;;;;;;;;;;6118077;29;20220;-76
2022/03/28 03:36:42;;;;;;;13.77;12.43;;;;;;;;;;6119781;29;20649;-74
2022/03/28 03:40:03;;;;;;;14.60;13.30;;;;;;;;;;6120036;29;20609;-75
2022/03/28 03:43:25;;;;;;;13.67;12.10;;;;;;;;;;6105762;29;20646;-75
2022/03/28 03:46:46;;;;;;;18.63;13.83;;;;;;;;;;6114262;29;20356;-75
2022/03/28 03:50:07;;;;;;;19.87;17.87;;;;;;;;;;6111594;29;20236;-75
2022/03/28 03:53:30;;;;;;;21.50;19.23;;;;;;;;;;6116676;29;20247;-75
2022/03/28 03:56:51;;;;;;;17.13;15.10;;;;;;;;;;6115259;29;20240;-75
2022/03/28 04:00:13;;;;;;;17.10;13.70;;;;;;;;;;6112883;29;20243;-74
2022/03/28 04:03:34;;;;;;;14.27;11.90;;;;;;;;;;6115692;29;20236;-74
2022/03/28 04:06:55;;;;;;;12.07;10.97;;;;;;;;;;6119456;29;20236;-75
2022/03/28 04:10:17;;;;;;;13.67;12.20;;;;;;;;;;6116803;29;20228;-75
2022/03/28 04:13:38;;;;;;;13.50;11.53;;;;;;;;;;6115400;29;20239;-75
2022/03/28 04:16:59;;;;;;;8.47;7.70;;;;;;;;;;6115093;29;20228;-75
2022/03/28 04:20:20;;;;;;;8.47;7.57;;;;;;;;;;6117454;29;20240;-74
2022/03/28 04:23:41;;;;;;;12.33;11.03;;;;;;;;;;6114264;29;20227;-75
2022/03/28 04:27:03;;;;;;;15.83;14.33;;;;;;;;;;6110998;29;20228;-75
2022/03/28 04:30:24;;;;;;;10.17;9.20;;;;;;;;;;6113663;29;20255;-74
2022/03/28 04:33:45;;;;;;;8.13;7.40;;;;;;;;;;6110735;29;20231;-74
2022/03/28 04:37:06;;;;;;;9.50;8.60;;;;;;;;;;6111591;29;20244;-75
2022/03/28 04:40:27;;;;;;;9.40;8.60;;;;;;;;;;6110987;29;20243;-76
2022/03/28 04:43:49;;;;;;;9.60;8.70;;;;;;;;;;6114765;29;20236;-75
2022/03/28 04:47:10;;;;;;;9.17;8.17;;;;;;;;;;6114322;29;20236;-75
2022/03/28 04:50:31;;;;;;;8.17;7.00;;;;;;;;;;6101111;29;20312;-75
2022/03/28 04:53:52;;;;;;;7.10;6.23;;;;;;;;;;6113312;29;20832;-75
2022/03/28 04:57:16;;;;;;;5.30;4.80;;;;;;;;;;6110744;29;20236;-74
2022/03/28 05:00:39;;;;;;;6.57;5.87;;;;;;;;;;6095330;28;21143;-73
2022/03/28 05:04:00;;;;;;;7.03;6.43;;;;;;;;;;6102337;29;20255;-76
2022/03/28 05:07:24;;;;;;;6.57;5.97;;;;;;;;;;6113462;29;20681;-76
2022/03/28 05:10:45;;;;;;;6.80;6.10;;;;;;;;;;6108668;29;20330;-75
2022/03/28 05:14:07;;;;;;;6.87;6.37;;;;;;;;;;6112450;29;20318;-76
2022/03/28 05:17:30;;;;;;;6.83;5.90;;;;;;;;;;6113916;29;20708;-74
2022/03/28 05:20:52;;;;;;;11.53;10.27;;;;;;;;;;6110515;28;20236;-75
2022/03/28 05:24:13;;;;;;;8.93;8.03;;;;;;;;;;6109871;29;20224;-76
2022/03/28 05:27:42;;;;;;;7.03;6.33;;;;;;;;;;6109073;29;20286;-74
2022/03/28 05:31:03;;;;;;;6.50;5.90;;;;;;;;;;6108221;29;20227;-74
2022/03/28 05:34:25;;;;;;;7.57;6.33;;;;;;;;;;6100666;29;20232;-73
2022/03/28 05:37:46;;;;;;;5.67;5.17;;;;;;;;;;6089626;29;20792;-74
2022/03/28 05:41:07;;;;;;;7.23;5.80;;;;;;;;;;6098146;29;20302;-74
2022/03/28 05:44:28;;;;;;;6.63;5.10;;;;;;;;;;6104425;29;20232;-75
2022/03/28 05:47:49;;;;;;;5.03;4.53;;;;;;;;;;6103787;29;20232;-73
2022/03/28 05:51:12;;;;;;;5.20;4.70;;;;;;;;;;6097767;28;20239;-74
2022/03/28 05:54:33;;;;;;;6.13;5.53;;;;;;;;;;6098621;29;20243;-73
2022/03/28 05:57:54;;;;;;;5.13;4.73;;;;;;;;;;6108365;29;20239;-73
2022/03/28 06:01:15;;;;;;;5.47;3.47;;;;;;;;;;6110353;29;20232;-72
2022/03/28 06:04:36;;;;;;;4.93;3.77;;;;;;;;;;6101832;29;20232;-72
2022/03/28 06:07:58;;;;;;;4.40;3.40;;;;;;;;;;6100417;29;20287;-78
2022/03/28 06:11:19;;;;;;;7.60;6.90;;;;;;;;;;6096117;29;20236;-75
2022/03/28 06:14:42;;;;;;;4.43;4.03;;;;;;;;;;6083659;29;20287;-78
2022/03/28 06:18:03;;;;;;;3.70;3.20;;;;;;;;;;6105386;29;20229;-78
2022/03/28 06:21:24;;;;;;;3.93;2.97;;;;;;;;;;6102747;29;20240;-77
2022/03/28 06:24:47;;;;;;;3.70;2.90;;;;;;;;;;6096829;29;20235;-75
2022/03/28 06:28:08;;;;;;;3.20;2.60;;;;;;;;;;6105018;29;20228;-78
2022/03/28 06:31:29;;;;;;;2.57;2.27;;;;;;;;;;6099881;29;20319;-74
2022/03/28 06:34:52;;;;;;;2.73;2.53;;;;;;;;;;6096840;29;20244;-78
2022/03/28 06:38:13;;;;;;;2.93;2.50;;;;;;;;;;6096933;29;20243;-77
2022/03/28 06:41:36;;;;;;;1.77;1.67;;;;;;;;;;6111892;29;20232;-76
2022/03/28 06:44:56;;;;;;;1.93;1.83;;;;;;;;;;6107050;29;20228;-76
2022/03/28 06:48:17;;;;;;;1.90;1.80;;;;;;;;;;6105361;29;20247;-81
2022/03/28 06:51:41;;;;;;;1.97;1.80;;;;;;;;;;6105444;29;20239;-76
2022/03/28 06:55:02;;;;;;;1.70;1.40;;;;;;;;;;6100407;29;20244;-78
2022/03/28 06:58:25;;;;;;;1.67;1.57;;;;;;;;;;6107869;28;20762;-81
2022/03/28 07:01:48;;;;;;;1.30;1.17;;;;;;;;;;6110719;29;20227;-77
2022/03/28 07:05:10;;;;;;;8.33;7.63;;;;;;;;;;6111320;29;20673;-79
2022/03/28 07:08:31;;;;;;;2.63;1.93;;;;;;;;;;6116142;28;20244;-73
2022/03/28 07:11:52;;;;;;;1.30;1.10;;;;;;;;;;6104662;29;20303;-72
2022/03/28 07:15:15;;;;;;;1.53;1.40;;;;;;;;;;6108629;29;20570;-76
2022/03/28 07:18:36;;;;;;;1.50;1.27;;;;;;;;;;6108636;29;20750;-74
2022/03/28 07:21:57;;;;;;;1.40;1.30;;;;;;;;;;6107974;29;20247;-75
2022/03/28 07:25:19;;;;;;;1.93;1.00;;;;;;;;;;6110315;29;20236;-76
2022/03/28 07:28:40;;;;;;;1.30;1.20;;;;;;;;;;6102689;29;20240;-68
2022/03/28 07:32:03;;;;;;;1.77;1.35;;;;;;;;;;6105817;29;20765;-68
2022/03/28 07:35:24;;;;;;;1.40;1.30;;;;;;;;;;6106011;29;20271;-68
2022/03/28 07:38:44;;;;;;;1.40;1.30;;;;;;;;;;6110594;29;20232;-68
2022/03/28 07:42:07;;;;;;;1.63;1.53;;;;;;;;;;6105998;29;20240;-79
2022/03/28 07:45:28;;;;;;;2.70;1.70;;;;;;;;;;6093524;29;20235;-81
2022/03/28 07:48:51;;;;;;;2.63;2.33;;;;;;;;;;6104179;29;20326;-75
2022/03/28 07:52:12;;;;;;;3.10;2.30;;;;;;;;;;6106491;29;20362;-77
2022/03/28 07:55:33;;;;;;;2.70;2.50;;;;;;;;;;6088151;29;20244;-78
2022/03/28 07:58:54;;;;;;;9.43;8.47;;;;;;;;;;6107994;29;20247;-74
2022/03/28 08:02:15;;;;;;;2.93;2.63;;;;;;;;;;6111442;29;20236;-75
2022/03/28 08:05:38;;;;;;;2.27;2.17;;;;;;;;;;6106036;29;20866;-74
2022/03/28 08:08:59;;;;;;;2.50;2.30;;;;;;;;;;6110044;29;20609;-73
2022/03/28 08:12:20;;;;;;;2.03;1.93;;;;;;;;;;6111752;29;20236;-75
2022/03/28 08:15:40;;;;;;;9.93;8.93;;;;;;;;;;6106185;29;20244;-75
2022/03/28 08:19:01;;;;;;;3.83;3.43;;;;;;;;;;6110528;29;20236;-76
2022/03/28 08:22:24;;;;;;;3.37;3.07;;;;;;;;;;6115239;29;20772;-74
2022/03/28 08:25:45;;;;;;;6.47;5.87;;;;;;;;;;6108517;29;20224;-75
2022/03/28 08:29:05;;;;;;;7.30;6.60;;;;;;;;;;6112289;29;21951;-76
2022/03/28 08:32:26;;;;;;;4.37;4.07;;;;;;;;;;6110801;29;20247;-73
2022/03/28 08:35:47;;;;;;;4.97;4.57;;;;;;;;;;6109966;29;20247;-73
2022/03/28 08:39:09;;;;;;;6.17;5.67;;;;;;;;;;6109507;29;20882;-75
2022/03/28 08:42:31;;;;;;;5.07;4.77;;;;;;;;;;6085168;29;20377;-78
2022/03/28 08:45:51;;;;;;;6.43;5.83;;;;;;;;;;6108576;29;20339;-74
2022/03/28 08:49:12;;;;;;;5.57;5.17;;;;;;;;;;6103080;29;20236;-76
2022/03/28 08:52:33;;;;;;;5.07;4.63;;;;;;;;;;6109818;29;20240;-77
2022/03/28 08:55:55;;;;;;;5.87;4.50;;;;;;;;;;6108084;29;20243;-71
2022/03/28 08:59:16;;;;;;;5.00;4.50;;;;;;;;;;6104919;29;20755;-69
2022/03/28 09:02:41;;;;;;;4.77;4.37;;;;;;;;;;6109407;29;20228;-68
2022/03/28 09:06:02;;;;;;;4.67;4.17;;;;;;;;;;6107486;29;20228;-74
2022/03/28 09:09:26;;;;;;;5.03;4.57;;;;;;;;;;6108702;29;20228;-75
2022/03/28 09:13:02;;;;;;;4.83;4.30;;;;;;;;;;6111793;29;20271;-75
2022/03/28 09:16:23;;;;;;;5.07;4.67;;;;;;;;;;6109058;29;20255;-72
2022/03/28 09:19:47;;;;;;;5.13;4.73;;;;;;;;;;6094107;29;20258;-74
2022/03/28 09:23:37;;;;;;;4.53;4.13;;;;;;;;;;6110562;29;20232;-75
2022/03/28 09:27:10;;;;;;;5.43;4.93;;;;;;;;;;6110927;29;20616;-78
2022/03/28 09:30:33;;;;;;;6.50;5.90;;;;;;;;;;6114481;28;20736;-73
2022/03/28 09:33:58;;;;;;;6.13;5.53;;;;;;;;;;6104770;29;20235;-76
2022/03/28 09:37:20;;;;;;;6.20;5.67;;;;;;;;;;6106862;29;20660;-77
2022/03/28 09:40:42;;;;;;;6.47;5.90;;;;;;;;;;6109556;29;20327;-75
2022/03/28 09:44:03;;;;;;;5.80;5.30;;;;;;;;;;6106978;29;20231;-75
2022/03/28 09:47:25;;;;;;;6.83;6.13;;;;;;;;;;6110586;29;20232;-76
2022/03/28 09:50:48;;;;;;;7.43;6.23;;;;;;;;;;6111379;29;20244;-76
2022/03/28 09:54:20;;;;;;;10.10;7.73;;;;;;;;;;6109658;29;20236;-75
2022/03/28 09:57:44;;;;;;;7.17;6.50;;;;;;;;;;6104835;29;20318;-77
2022/03/28 10:01:07;;;;;;;10.90;9.80;;;;;;;;;;6099978;29;20239;-78
2022/03/28 10:04:31;;;;;;;9.55;8.65;;;;;;;;;;6095962;29;20749;-75
2022/03/28 10:07:54;;;;;;;8.73;7.93;;;;;;;;;;6104536;29;20244;-74
2022/03/28 10:11:16;;;;;;;8.53;7.83;;;;;;;;;;6111264;29;20315;-75
2022/03/28 10:14:37;;;;;;;9.10;8.30;;;;;;;;;;6108524;29;20239;-75
2022/03/28 10:17:58;;;;;;;8.77;7.97;;;;;;;;;;6110372;29;20254;-75
2022/03/28 10:21:23;;;;;;;7.83;7.13;;;;;;;;;;6109364;29;20235;-73
2022/03/28 10:24:46;;;;;;;8.07;7.17;;;;;;;;;;6109156;29;20322;-75
2022/03/28 10:28:09;;;;;;;9.00;8.17;;;;;;;;;;6110414;29;20228;-74
2022/03/28 10:31:32;;;;;;;10.00;9.10;;;;;;;;;;6111290;29;20265;-75
2022/03/28 10:34:56;;;;;;;8.97;8.17;;;;;;;;;;6109273;29;20232;-73
2022/03/28 10:38:19;;;;;;;8.03;7.17;;;;;;;;;;6108333;29;20236;-73
2022/03/28 10:41:41;;;;;;;6.33;5.80;;;;;;;;;;6105588;29;20467;-74
2022/03/28 10:45:04;;;;;;;8.70;7.90;;;;;;;;;;6108152;29;20617;-69
2022/03/28 10:48:38;;;;;;;10.80;9.80;;;;;;;;;;6096429;29;20236;-69
2022/03/28 10:52:00;;;;;;;6.80;6.17;;;;;;;;;;6102491;29;20278;-69
2022/03/28 10:55:33;;;;;;;6.00;5.40;;;;;;;;;;6104269;29;20746;-69
2022/03/28 10:58:56;;;;;;;5.73;4.73;;;;;;;;;;6108119;29;20310;-77
2022/03/28 11:02:28;;;;;;;5.90;5.30;;;;;;;;;;6102314;29;20348;-76
2022/03/28 11:05:55;;;;;;;6.10;5.43;;;;;;;;;;6108708;29;20334;-77
2022/03/28 11:09:34;;;;;;;5.50;4.63;;;;;;;;;;6106459;29;20228;-80
2022/03/28 11:13:14;;;;;;;5.83;4.47;;;;;;;;;;6110727;29;20357;-76
2022/03/28 11:16:43;;;;;;;6.00;4.40;;;;;;;;;;6111239;29;20251;-76
2022/03/28 11:20:12;;;;;;;5.07;4.67;;;;;;;;;;6107667;29;20243;-74
2022/03/28 11:23:37;;;;;;;5.67;4.70;;;;;;;;;;6103855;29;20226;-76
2022/03/28 11:26:58;;;;;;;6.53;6.03;;;;;;;;;;6113299;29;20239;-78
2022/03/28 11:30:20;;;;;;;6.23;5.73;;;;;;;;;;6109002;29;21246;-76
2022/03/28 11:33:44;;;;;;;6.72;6.28;;;;;;;;;;6113866;28;20315;-76
2022/03/28 11:37:06;;;;;;;8.68;6.68;;;;;;;;;;6112896;28;20236;-79
2022/03/28 11:40:37;;;;;;;5.75;5.25;;;;;;;;;;6105353;29;20367;-77
2022/03/28 11:43:58;;;;;;;6.50;4.95;;;;;;;;;;6110158;29;20236;-73
2022/03/28 11:47:21;;;;;;;4.45;3.90;;;;;;;;;;6115674;29;20565;-73
2022/03/28 11:50:42;;;;;;;7.05;6.38;;;;;;;;;;6113977;29;20330;-76
2022/03/28 11:54:05;;;;;;;5.07;4.30;;;;;;;;;;6113246;29;20322;-79
2022/03/28 12:01:09;;;;;;;3.97;3.42;;;;;;;;;;6112245;29;20224;-80
2022/03/28 12:04:31;;;;;;;5.00;3.65;;;;;;;;;;6112451;29;20231;-77
2022/03/28 12:07:52;;;;;;;4.70;4.20;;;;;;;;;;6113808;29;20232;-78
2022/03/28 12:11:14;;;;;;;5.80;4.65;;;;;;;;;;6108186;29;20398;-76
2022/03/28 12:14:34;;;;;;;4.15;3.75;;;;;;;;;;6082470;29;20232;-75
2022/03/28 12:17:57;;;;;;;6.87;3.90;;;;;;;;;;6088942;29;20835;-70
2022/03/28 12:21:19;;;;;;;3.80;3.40;;;;;;;;;;6111442;29;20262;-73
2022/03/28 12:24:50;;;;;;;4.23;3.43;;;;;;;;;;6110283;29;20243;-73
2022/03/28 12:28:13;;;;;;;4.00;3.38;;;;;;;;;;6098520;29;20247;-76
2022/03/28 12:31:33;;;;;;;6.03;4.37;;;;;;;;;;6107321;29;20259;-74
2022/03/28 12:34:54;;;;;;;8.70;6.77;;;;;;;;;;6104051;29;20232;-75
2022/03/28 12:38:20;;;;;;;4.80;4.13;;;;;;;;;;6101862;29;20236;-83
2022/03/28 12:41:42;;;;;;;5.30;4.83;;;;;;;;;;6070286;29;20240;-81
2022/03/28 12:45:03;;;;;;;5.40;4.90;;;;;;;;;;6095390;29;20224;-80
2022/03/28 12:48:37;;;;;;;7.43;4.50;;;;;;;;;;6101045;29;20220;-75
2022/03/28 12:52:09;;;;;;;5.73;4.83;;;;;;;;;;6103265;29;20244;-74
2022/03/28 12:55:31;;;;;;;5.00;4.57;;;;;;;;;;6099717;29;20610;-73
2022/03/28 12:58:54;;;;;;;6.70;5.80;;;;;;;;;;6106057;29;20682;-74
2022/03/28 13:02:18;;;;;;;5.97;5.37;;;;;;;;;;6112086;29;20726;-77
2022/03/28 13:05:39;;;;;;;6.33;4.80;;;;;;;;;;6110722;29;20243;-77
2022/03/28 13:09:04;;;;;;;5.70;4.77;;;;;;;;;;6110978;29;20543;-73
2022/03/28 13:12:44;;;;;;;7.37;5.20;;;;;;;;;;6106469;29;20300;-77
2022/03/28 13:16:05;;;;;;;8.20;5.93;;;;;;;;;;6107082;29;20231;-77
2022/03/28 13:19:26;;;;;;;7.53;5.53;;;;;;;;;;6112692;29;20235;-74
2022/03/28 13:22:48;;;;;;;6.03;5.43;;;;;;;;;;6106487;29;20243;-68
2022/03/28 13:26:14;;;;;;;6.43;5.70;;;;;;;;;;6101925;29;20259;-67
2022/03/28 13:29:40;;;;;;;6.70;6.10;;;;;;;;;;6107560;29;21239;-68
2022/03/28 13:33:01;;;;;;;7.50;5.53;;;;;;;;;;6110715;29;20506;-69
2022/03/28 13:36:21;;;;;;;7.57;6.13;;;;;;;;;;6106489;29;20374;-68
2022/03/28 13:39:42;;;;;;;6.27;5.63;;;;;;;;;;6099053;29;20239;-75
2022/03/28 13:43:20;;;;;;;6.87;6.17;;;;;;;;;;6100155;29;20232;-89
2022/03/28 13:46:46;;;;;;;6.60;5.97;;;;;;;;;;6095917;28;20315;-81
2022/03/28 13:50:07;;;;;;;7.33;6.63;;;;;;;;;;6109136;29;20638;-79
2022/03/28 13:53:28;;;;;;;11.37;7.83;;;;;;;;;;6105410;29;20240;-75
2022/03/28 13:56:50;;;;;;;7.67;6.80;;;;;;;;;;6109860;29;20236;-74
2022/03/28 14:00:11;;;;;;;8.60;6.73;;;;;;;;;;6106177;29;20235;-78
2022/03/28 14:03:33;;;;;;;7.80;7.13;;;;;;;;;;6109345;29;20244;-75
2022/03/28 14:06:55;;;;;;;8.10;7.00;;;;;;;;;;6095369;29;20322;-80
2022/03/28 14:10:15;;;;;;;7.57;6.77;;;;;;;;;;6094067;29;20346;-77
2022/03/28 14:13:36;;;;;;;7.97;7.20;;;;;;;;;;6112249;29;20239;-77
2022/03/28 14:16:57;;;;;;;8.00;7.20;;;;;;;;;;6113907;29;20239;-76
2022/03/28 14:20:19;;;;;;;8.50;7.70;;;;;;;;;;6108422;29;20243;-76
2022/03/28 14:23:40;;;;;;;9.53;8.13;;;;;;;;;;6112369;29;20507;-78
2022/03/28 14:27:01;;;;;;;12.03;7.43;;;;;;;;;;6099095;29;20251;-78
2022/03/28 14:30:22;;;;;;;9.53;8.53;;;;;;;;;;6099797;29;20322;-77
2022/03/28 14:33:43;;;;;;;9.87;8.73;;;;;;;;;;6111879;29;20657;-80
2022/03/28 14:37:05;;;;;;;9.40;8.43;;;;;;;;;;6111093;29;21061;-78
2022/03/28 14:40:27;;;;;;;11.30;10.00;;;;;;;;;;6111887;29;20247;-77
2022/03/28 14:43:48;;;;;;;12.20;9.70;;;;;;;;;;6107916;29;21782;-77
2022/03/28 14:47:10;;;;;;;11.77;10.70;;;;;;;;;;6110582;29;20231;-76
2022/03/28 14:50:31;;;;;;;13.67;11.90;;;;;;;;;;6108198;29;20236;-79
2022/03/28 14:53:53;;;;;;;12.60;11.30;;;;;;;;;;6106401;29;20239;-76
2022/03/28 14:57:14;;;;;;;11.87;10.03;;;;;;;;;;6114076;29;20235;-78
2022/03/28 15:00:36;;;;;;;10.07;9.03;;;;;;;;;;6111535;29;20236;-76
2022/03/28 15:03:57;;;;;;;10.07;9.07;;;;;;;;;;6109819;29;20496;-77
2022/03/28 15:07:21;;;;;;;9.90;8.90;;;;;;;;;;6110078;29;20232;-78
2022/03/28 15:10:44;;;;;;;8.37;7.57;;;;;;;;;;6112110;29;20314;-77
2022/03/28 15:14:06;;;;;;;9.27;8.40;;;;;;;;;;6109384;29;20227;-76
2022/03/28 15:17:27;;;;;;;10.03;9.03;;;;;;;;;;6112301;29;20239;-78
2022/03/28 15:20:48;;;;;;;8.43;7.57;;;;;;;;;;6114392;29;20227;-76
2022/03/28 15:24:09;;;;;;;8.27;7.57;;;;;;;;;;6114527;29;20254;-76
2022/03/28 15:27:31;;;;;;;8.60;7.73;;;;;;;;;;6102890;29;20240;-76
2022/03/28 15:31:26;;;;;;;7.83;7.20;;;;;;;;;;6112535;29;20236;-77
2022/03/28 15:34:47;;;;;;;9.53;8.07;;;;;;;;;;6105660;29;20236;-77
2022/03/28 15:38:10;;;;;;;8.30;7.50;;;;;;;;;;6110400;29;20236;-76
2022/03/28 15:41:31;;;;;;;10.53;9.43;;;;;;;;;;6103532;29;20236;-75
2022/03/28 15:44:53;;;;;;;8.70;7.90;;;;;;;;;;6108970;29;20610;-76
2022/03/28 15:48:14;;;;;;;8.60;7.73;;;;;;;;;;6111894;29;20224;-74
2022/03/28 15:51:35;;;;;;;6.83;6.10;;;;;;;;;;6110875;29;20235;-76
2022/03/28 15:54:56;;;;;;;14.43;12.97;;;;;;;;;;6114419;29;20236;-76
2022/03/28 15:58:17;;;;;;;9.73;8.90;;;;;;;;;;6109024;29;20251;-75
2022/03/28 16:01:48;;;;;;;8.53;7.73;;;;;;;;;;6105074;29;20236;-74
2022/03/28 16:05:09;;;;;;;8.40;7.60;;;;;;;;;;6112528;29;20215;-75
2022/03/28 16:08:30;;;;;;;8.10;7.40;;;;;;;;;;6094083;29;20236;-74
2022/03/28 16:11:53;;;;;;;9.33;8.43;;;;;;;;;;6096031;29;20233;-76
2022/03/28 16:15:13;;;;;;;13.57;12.17;;;;;;;;;;6106145;29;20306;-75
2022/03/28 16:18:36;;;;;;;9.73;8.73;;;;;;;;;;6113300;29;20244;-75
2022/03/28 16:21:57;;;;;;;8.73;7.97;;;;;;;;;;6107261;29;20355;-75
2022/03/28 16:25:18;;;;;;;8.73;7.97;;;;;;;;;;6099973;29;20240;-77
2022/03/28 16:28:39;;;;;;;9.73;8.73;;;;;;;;;;6111422;29;20236;-75
2022/03/28 16:32:00;;;;;;;8.90;8.00;;;;;;;;;;6109703;29;20240;-79
2022/03/28 16:35:22;;;;;;;9.27;8.30;;;;;;;;;;6108105;29;20296;-78
2022/03/28 16:38:43;;;;;;;13.67;12.37;;;;;;;;;;6107715;29;20630;-77
2022/03/28 16:42:04;;;;;;;8.00;7.20;;;;;;;;;;6111718;29;20227;-77
2022/03/28 16:45:25;;;;;;;7.70;7.00;;;;;;;;;;6106726;29;20995;-77
2022/03/28 16:48:46;;;;;;;10.23;7.67;;;;;;;;;;6112531;29;20246;-78
2022/03/28 16:52:09;;;;;;;9.43;7.70;;;;;;;;;;6113966;29;20504;-79
2022/03/28 16:55:31;;;;;;;10.13;9.13;;;;;;;;;;6112844;29;20235;-79
2022/03/28 16:58:52;;;;;;;7.53;6.83;;;;;;;;;;6107944;29;20240;-79
2022/03/28 17:02:12;;;;;;;16.07;14.37;;;;;;;;;;6110812;29;20232;-80
2022/03/28 17:05:34;;;;;;;8.37;7.57;;;;;;;;;;6108885;29;20729;-77
2022/03/28 17:08:56;;;;;;;9.03;8.13;;;;;;;;;;6114471;29;20280;-79
2022/03/28 17:12:17;;;;;;;9.17;8.27;;;;;;;;;;6111481;29;20228;-79
2022/03/28 17:15:41;;;;;;;9.33;7.23;;;;;;;;;;6106406;29;20232;-77
2022/03/28 17:19:01;;;;;;;7.97;7.27;;;;;;;;;;6104922;29;20244;-76
2022/03/28 17:22:22;;;;;;;10.60;9.20;;;;;;;;;;6106711;29;20973;-75
2022/03/28 17:25:45;;;;;;;9.88;8.98;;;;;;;;;;6101958;29;20762;-73
2022/03/28 17:29:08;;;;;;;11.43;10.23;;;;;;;;;;6104501;29;20499;-75
2022/03/28 17:32:29;;;;;;;14.57;13.07;;;;;;;;;;6106068;29;20235;-74
2022/03/28 17:35:50;;;;;;;12.00;9.93;;;;;;;;;;6102357;29;20247;-74
2022/03/28 17:39:11;;;;;;;12.40;11.13;;;;;;;;;;6107803;29;20237;-74
2022/03/28 17:42:34;;;;;;;13.30;11.60;;;;;;;;;;6110357;29;20228;-74
2022/03/28 17:45:58;;;;;;;12.83;9.63;;;;;;;;;;6108558;29;20263;-75
2022/03/28 17:49:20;;;;;;;8.83;8.00;;;;;;;;;;6103995;29;20232;-75
2022/03/28 17:52:41;;;;;;;11.23;8.60;;;;;;;;;;6104116;29;20239;-74
2022/03/28 17:56:02;;;;;;;9.60;8.73;;;;;;;;;;6100952;29;20310;-76
2022/03/28 17:59:24;;;;;;;11.57;10.47;;;;;;;;;;6097513;29;20252;-75
2022/03/28 18:02:45;;;;;;;17.60;15.77;;;;;;;;;;6069905;29;20625;-75
2022/03/28 18:06:08;;;;;;;14.77;13.37;;;;;;;;;;6097178;29;20235;-75
2022/03/28 18:09:31;;;;;;;10.87;9.77;;;;;;;;;;6097750;29;20536;-76
2022/03/28 18:12:52;;;;;;;12.20;11.00;;;;;;;;;;6096057;29;20776;-78
2022/03/28 18:16:15;;;;;;;13.67;12.00;;;;;;;;;;6087054;29;20645;-75
2022/03/28 18:19:37;;;;;;;13.43;12.10;;;;;;;;;;6102129;29;20244;-74
2022/03/28 18:22:58;;;;;;;13.20;11.90;;;;;;;;;;6107781;29;20689;-77
2022/03/28 18:26:20;;;;;;;12.63;11.23;;;;;;;;;;6108475;29;20334;-77
2022/03/28 18:29:41;;;;;;;12.63;11.43;;;;;;;;;;6111559;29;20227;-78
2022/03/28 18:33:04;;;;;;;11.90;10.90;;;;;;;;;;6111171;29;20231;-78
2022/03/28 18:36:29;;;;;;;14.10;11.33;;;;;;;;;;6108888;29;20240;-84
2022/03/28 18:39:50;;;;;;;15.43;12.33;;;;;;;;;;6102620;29;20283;-76
2022/03/28 18:43:11;;;;;;;12.83;11.30;;;;;;;;;;6096141;29;20328;-77
2022/03/28 18:46:32;;;;;;;12.80;11.27;;;;;;;;;;6110891;29;20318;-81
2022/03/28 18:49:58;;;;;;;25.30;21.53;;;;;;;;;;6111836;29;20228;-82
2022/03/28 18:53:20;;;;;;;13.60;12.20;;;;;;;;;;6111226;29;20264;-81
2022/03/28 18:56:41;;;;;;;12.33;11.13;;;;;;;;;;6110164;29;20613;-78
2022/03/28 19:00:04;;;;;;;14.87;13.40;;;;;;;;;;6115495;29;20243;-81
2022/03/28 19:03:25;;;;;;;15.30;13.60;;;;;;;;;;6112385;29;20239;-76
2022/03/28 19:06:48;;;;;;;13.90;12.50;;;;;;;;;;6082368;29;20224;-77
2022/03/28 19:10:09;;;;;;;16.43;12.67;;;;;;;;;;6118996;29;20602;-84
2022/03/28 19:13:33;;;;;;;12.07;10.87;;;;;;;;;;6116580;28;20235;-75
2022/03/28 19:16:54;;;;;;;14.07;12.60;;;;;;;;;;6096310;29;20235;-77
2022/03/28 19:20:15;;;;;;;13.97;12.50;;;;;;;;;;6109816;29;20239;-75
2022/03/28 19:23:38;;;;;;;15.00;13.47;;;;;;;;;;6118412;29;20342;-79
2022/03/28 19:26:59;;;;;;;18.43;16.43;;;;;;;;;;6112354;29;20227;-76
2022/03/28 19:30:20;;;;;;;16.93;15.17;;;;;;;;;;6105356;29;20241;-76
2022/03/28 19:33:43;;;;;;;15.97;14.40;;;;;;;;;;6114664;29;20235;-82
2022/03/28 19:37:04;;;;;;;15.77;13.50;;;;;;;;;;6099662;29;20359;-75
2022/03/28 19:40:27;;;;;;;17.57;14.23;;;;;;;;;;6108029;29;20243;-78
2022/03/28 19:43:48;;;;;;;16.83;15.17;;;;;;;;;;6100648;29;20252;-78
2022/03/28 19:47:10;;;;;;;15.83;13.87;;;;;;;;;;6108983;29;20231;-81
2022/03/28 19:50:37;;;;;;;16.17;14.57;;;;;;;;;;6118054;29;20512;-87
2022/03/28 19:53:58;;;;;;;18.47;16.13;;;;;;;;;;6091652;29;20228;-70
2022/03/28 19:57:21;;;;;;;17.77;15.67;;;;;;;;;;6104757;29;20236;-73
2022/03/28 20:00:42;;;;;;;20.27;15.93;;;;;;;;;;6113913;29;20259;-73
2022/03/28 20:04:03;;;;;;;15.03;13.53;;;;;;;;;;6108931;29;20240;-76
2022/03/28 20:07:27;;;;;;;19.37;17.03;;;;;;;;;;6111304;29;20243;-74